Terminal Aerodrome Forecast
Issued by NWS Paducah, KY

Home | Current Version | Previous Version | Text Only | Print | Product List | Glossary On
Versions: 1 2 3 4 5 6 7 8 9 10 11 12 13 14
000
FTUS43 KPAH 210737 AAA
TAFEVV
TAF AMD
KEVV 210737Z 2108/2206 32006KT P6SM SCT030 BKN060
     FM211000 32005KT P6SM SCT060
     FM211300 32008KT P6SM SCT200
     FM220100 33002KT P6SM FEW250=

USA.gov is the U.S. government's official web portal to all federal, state and local government web resources and services.